Time;durP1;ratioP1;P1;durP2;ratioP2;P2;SDS_P1;SDS_P2;PMS_P1;PMS_P2;Temp;Humidity;BMP_temperature;BMP_pressure;BME280_temperature;BME280_humidity;BME280_pressure;Samples;Min_cycle;Max_cycle;Signal;HPM_P1;HPM_P2
2023/11/21 00:00:35;;;;;;;0.30;0.30;;;;;;;5.69;95.19;99046.66;5054098;28;20285;-71
2023/11/21 00:03:05;;;;;;;0.40;0.40;;;;;;;5.67;94.78;99038.22;5054352;28;20286;-71
2023/11/21 00:05:35;;;;;;;0.60;0.60;;;;;;;5.64;95.20;99038.22;5054275;28;20104;-71
2023/11/21 00:08:05;;;;;;;1.38;1.23;;;;;;;5.59;95.23;99037.31;5054537;28;20044;-71
2023/11/21 00:10:34;;;;;;;1.10;1.05;;;;;;;5.42;95.19;99027.88;5053898;28;20131;-71
2023/11/21 00:13:03;;;;;;;0.80;0.65;;;;;;;5.54;95.22;99041.50;5053930;28;20090;-71
2023/11/21 00:15:32;;;;;;;0.70;0.70;;;;;;;5.53;94.98;99040.63;5054315;28;20048;-71
2023/11/21 00:18:02;;;;;;;1.13;1.02;;;;;;;5.48;95.08;99043.94;5053763;28;20075;-71
2023/11/21 00:20:31;;;;;;;0.43;0.43;;;;;;;5.45;95.11;99041.41;5036492;28;20060;-71
2023/11/21 00:23:02;;;;;;;2.15;1.80;;;;;;;5.47;95.26;99060.81;5053729;28;20053;-71
2023/11/21 00:25:31;;;;;;;1.13;1.02;;;;;;;5.35;95.77;99043.81;5053681;28;20503;-71
2023/11/21 00:28:01;;;;;;;0.77;0.77;;;;;;;5.42;94.80;99057.41;5054012;28;20391;-72
2023/11/21 00:30:30;;;;;;;;;;;;;;;5.38;95.34;99056.50;5052817;28;20052;-71
2023/11/21 00:32:59;;;;;;;0.70;0.70;;;;;;;5.41;94.75;99051.50;5053933;28;19925;-71
2023/11/21 00:35:31;;;;;;;2.53;1.27;;;;;;;5.45;95.43;99038.88;5052592;28;20406;-71
2023/11/21 00:38:00;;;;;;;0.82;0.82;;;;;;;5.49;95.38;99045.66;5053561;28;20457;-72
2023/11/21 00:40:29;;;;;;;0.50;0.50;;;;;;;5.54;95.53;99042.34;5053234;28;20052;-72
2023/11/21 00:42:57;;;;;;;0.60;0.60;;;;;;;5.57;95.37;99036.44;5054123;28;20064;-71
2023/11/21 00:45:26;;;;;;;1.50;1.40;;;;;;;5.56;94.87;99029.69;5052547;28;20103;-71
2023/11/21 00:47:56;;;;;;;0.60;0.60;;;;;;;5.59;95.50;99024.66;5053412;28;20351;-71
2023/11/21 00:50:25;;;;;;;0.60;0.60;;;;;;;5.55;95.31;99033.03;5053417;28;20045;-71
2023/11/21 00:52:55;;;;;;;0.63;0.63;;;;;;;5.48;95.36;99016.97;5053364;28;20068;-71
2023/11/21 00:55:25;;;;;;;3.28;1.02;;;;;;;5.62;95.82;99032.25;5053373;28;20518;-71
2023/11/21 00:57:53;;;;;;;0.80;0.80;;;;;;;5.63;95.63;99032.28;5053482;28;20466;-71
2023/11/21 01:00:23;;;;;;;1.20;1.13;;;;;;;5.65;95.67;99035.69;5052442;28;20040;-71
2023/11/21 01:02:52;;;;;;;0.77;0.77;;;;;;;5.62;95.21;99038.16;5053361;28;20521;-72
2023/11/21 01:05:21;;;;;;;0.50;0.50;;;;;;;5.62;95.77;99039.84;5053567;28;20049;-71
2023/11/21 01:07:50;;;;;;;0.40;0.40;;;;;;;5.61;95.38;99023.00;5053482;28;20079;-71
2023/11/21 01:10:21;;;;;;;0.40;0.40;;;;;;;5.70;95.81;99025.59;5053234;28;20048;-71
2023/11/21 01:12:50;;;;;;;0.38;0.38;;;;;;;5.71;95.71;99025.59;5053269;28;20107;-71
2023/11/21 01:15:19;;;;;;;0.30;0.30;;;;;;;5.69;95.23;99021.34;5053195;28;20045;-71
2023/11/21 01:17:48;;;;;;;0.40;0.40;;;;;;;5.64;95.21;99020.50;5051814;28;20294;-71
2023/11/21 01:20:18;;;;;;;1.27;1.10;;;;;;;5.58;95.42;99028.88;5053710;28;20306;-71
2023/11/21 01:22:49;;;;;;;0.88;0.88;;;;;;;5.52;95.47;99027.97;5053490;28;20072;-71
2023/11/21 01:25:18;;;;;;;0.35;0.35;;;;;;;5.49;95.62;99027.94;5052525;28;20446;-71
2023/11/21 01:27:48;;;;;;;0.32;0.32;;;;;;;5.48;95.59;99026.22;5053019;28;20072;-71
2023/11/21 01:30:17;;;;;;;0.40;0.40;;;;;;;5.45;95.28;99023.69;5053050;28;20041;-71
2023/11/21 01:32:46;;;;;;;0.20;0.20;;;;;;;5.42;95.16;99027.06;5051855;28;20037;-71
2023/11/21 01:35:15;;;;;;;0.77;0.77;;;;;;;5.27;95.00;99017.63;5051783;28;20309;-71
2023/11/21 01:37:44;;;;;;;0.43;0.43;;;;;;;5.26;94.96;99023.50;5051633;28;20055;-71
2023/11/21 01:40:13;;;;;;;0.30;0.30;;;;;;;5.17;95.09;99018.38;5051728;28;20037;-71
2023/11/21 01:42:46;;;;;;;0.32;0.32;;;;;;;5.19;94.97;99028.50;5051873;28;20047;-71
2023/11/21 01:45:17;;;;;;;0.70;0.70;;;;;;;5.15;94.85;99027.63;5068653;28;20193;-71
2023/11/21 01:47:46;;;;;;;0.75;0.75;;;;;;;5.10;94.76;99019.16;5051990;28;20163;-71
2023/11/21 01:50:17;;;;;;;0.35;0.35;;;;;;;5.19;95.37;99029.34;5051766;28;20053;-71
2023/11/21 01:52:48;;;;;;;0.73;0.73;;;;;;;5.22;95.09;99029.38;5053180;28;20541;-71
2023/11/21 01:55:19;;;;;;;0.40;0.40;;;;;;;5.29;95.11;99026.06;5051517;28;20049;-71
2023/11/21 01:57:57;;;;;;;0.30;0.30;;;;;;;5.35;94.86;99022.78;5053377;28;20434;-71
2023/11/21 02:00:28;;;;;;;;;;;;;;;5.43;95.21;99032.09;5055048;28;20048;-71
2023/11/21 02:02:59;;;;;;;0.40;0.40;;;;;;;5.40;94.77;99033.75;5056374;28;20366;-71
2023/11/21 02:05:29;;;;;;;0.60;0.60;;;;;;;5.45;94.96;99036.34;5071963;28;20473;-71
2023/11/21 02:08:00;;;;;;;0.20;0.20;;;;;;;5.49;94.78;99027.94;5056575;28;20128;-71
2023/11/21 02:10:30;;;;;;;;;;;;;;;5.60;95.66;99037.31;5055844;28;20048;-71
2023/11/21 02:13:02;;;;;;;0.68;0.68;;;;;;;5.67;95.32;99033.16;5056623;28;19920;-71
2023/11/21 02:15:33;;;;;;;0.30;0.30;;;;;;;5.69;95.18;99027.25;5056236;28;20048;-71
2023/11/21 02:18:03;;;;;;;0.40;0.40;;;;;;;5.42;95.05;98972.22;5054809;28;20053;-71
2023/11/21 02:20:34;;;;;;;0.60;0.60;;;;;;;5.74;95.64;99027.28;5054866;28;20052;-71
2023/11/21 02:23:07;;;;;;;1.15;1.05;;;;;;;5.78;95.62;99031.56;5055983;28;20098;-71
2023/11/21 02:25:37;;;;;;;0.40;0.40;;;;;;;5.72;95.48;99021.38;5056265;28;20049;-71
2023/11/21 02:28:07;;;;;;;0.77;0.77;;;;;;;5.74;95.63;99027.28;5055976;28;20410;-71
2023/11/21 02:30:37;;;;;;;0.80;0.70;;;;;;;5.71;95.43;99019.69;5055803;28;20095;-71
2023/11/21 02:33:07;;;;;;;0.50;0.50;;;;;;;5.69;95.31;99013.75;5021713;28;20063;-71
2023/11/21 02:35:37;;;;;;;1.00;0.95;;;;;;;5.67;94.93;98997.72;5055727;28;20080;-71
2023/11/21 02:38:08;;;;;;;0.45;0.45;;;;;;;5.61;94.99;98995.16;5054724;28;20037;-71
2023/11/21 02:40:37;;;;;;;0.95;0.95;;;;;;;5.57;95.49;98990.88;5054389;28;20052;-71
2023/11/21 02:43:06;;;;;;;0.75;0.75;;;;;;;5.57;95.42;98995.94;5055611;28;20033;-71
2023/11/21 02:45:35;;;;;;;0.50;0.50;;;;;;;5.56;95.04;98989.19;5054350;28;20044;-71
2023/11/21 02:48:06;;;;;;;0.63;0.63;;;;;;;5.54;95.04;98990.88;5055251;28;20051;-71
2023/11/21 02:50:35;;;;;;;0.45;0.45;;;;;;;5.53;95.48;98994.22;5054227;28;20052;-71
2023/11/21 02:53:05;;;;;;;0.50;0.50;;;;;;;5.56;94.98;98989.19;5055117;28;20132;-72
2023/11/21 02:55:36;;;;;;;1.80;1.05;;;;;;;5.51;95.24;98976.50;5054287;28;20095;-71
2023/11/21 02:58:06;;;;;;;0.40;0.40;;;;;;;5.46;94.93;98978.16;5055624;28;20049;-71
2023/11/21 03:00:35;;;;;;;0.70;0.70;;;;;;;5.38;95.44;98974.69;5055314;28;20498;-72
2023/11/21 03:03:04;;;;;;;0.90;0.90;;;;;;;5.34;95.08;98980.59;5055635;28;20049;-72
2023/11/21 03:05:35;;;;;;;1.23;1.13;;;;;;;5.27;95.20;98992.34;5054079;28;20285;-71
2023/11/21 03:08:05;;;;;;;0.73;0.73;;;;;;;5.21;95.26;98994.78;5054066;28;20053;-72
2023/11/21 03:10:35;;;;;;;0.38;0.38;;;;;;;5.13;94.96;98991.38;5054900;28;20114;-72
2023/11/21 03:13:04;;;;;;;1.15;1.05;;;;;;;5.12;95.14;98999.78;5055684;28;20080;-71
2023/11/21 03:15:34;;;;;;;0.47;0.47;;;;;;;5.08;95.31;98980.34;5055254;28;20041;-71
2023/11/21 03:18:05;;;;;;;0.50;0.50;;;;;;;5.16;95.26;98993.91;5054909;28;20044;-71
2023/11/21 03:20:34;;;;;;;0.43;0.43;;;;;;;5.12;95.20;98992.19;5054900;28;20052;-71
2023/11/21 03:23:03;;;;;;;0.30;0.30;;;;;;;5.02;95.02;98990.38;5053709;28;20509;-71
2023/11/21 03:25:32;;;;;;;0.60;0.60;;;;;;;4.98;94.62;98993.72;5053596;28;20044;-71
2023/11/21 03:28:03;;;;;;;1.67;0.60;;;;;;;4.93;94.79;98989.44;5053657;28;20278;-72
2023/11/21 03:30:32;;;;;;;0.28;0.28;;;;;;;4.93;94.59;98995.38;5054653;28;20045;-71
2023/11/21 03:33:00;;;;;;;0.73;0.73;;;;;;;4.89;94.84;98992.78;5053760;28;20499;-71
2023/11/21 03:35:30;;;;;;;0.38;0.38;;;;;;;4.84;94.58;98987.69;5053706;28;20473;-71
2023/11/21 03:37:59;;;;;;;1.10;1.00;;;;;;;4.69;94.85;98960.56;5054543;28;20045;-71
2023/11/21 03:40:31;;;;;;;0.30;0.30;;;;;;;4.67;94.83;98958.84;5053381;28;20041;-72
2023/11/21 03:42:59;;;;;;;0.43;0.43;;;;;;;4.78;94.59;98980.03;5054492;28;20041;-71
2023/11/21 03:45:30;;;;;;;0.50;0.50;;;;;;;4.69;94.87;98972.34;5054496;28;20048;-71
2023/11/21 03:48:01;;;;;;;0.30;0.30;;;;;;;4.69;94.75;98974.88;5053507;28;20076;-72
2023/11/21 03:50:31;;;;;;;1.02;1.02;;;;;;;4.66;93.95;98974.84;5053333;28;20041;-71
2023/11/21 03:53:00;;;;;;;0.38;0.38;;;;;;;4.66;94.41;98965.56;5054089;28;20049;-72
2023/11/21 03:55:31;;;;;;;0.50;0.50;;;;;;;4.67;94.61;98963.91;5054545;28;20045;-71
2023/11/21 04:02:28;;;;;;;0.93;0.93;;;;;;;4.58;94.43;98973.91;5054462;28;20055;-71
2023/11/21 04:04:57;;;;;;;0.45;0.45;;;;;;;4.54;94.69;98974.69;5054188;28;20083;-71
2023/11/21 04:07:26;;;;;;;1.85;1.70;;;;;;;4.54;94.57;98979.75;5054026;28;20128;-71
2023/11/21 04:09:55;;;;;;;0.82;0.82;;;;;;;4.60;94.47;98984.88;5054284;28;20048;-71
2023/11/21 04:12:24;;;;;;;0.38;0.38;;;;;;;4.49;94.59;98986.41;5053946;28;20037;-71
2023/11/21 04:14:54;;;;;;;2.83;1.17;;;;;;;4.40;94.24;98978.72;5053956;28;20442;-71
2023/11/21 04:17:24;;;;;;;0.45;0.45;;;;;;;4.40;94.27;98981.25;5053879;28;20133;-71
2023/11/21 04:19:54;;;;;;;0.40;0.40;;;;;;;4.39;94.43;98972.81;5054105;28;20049;-71
2023/11/21 04:22:23;;;;;;;0.70;0.70;;;;;;;4.36;93.99;98979.53;5053224;28;20073;-71
2023/11/21 04:24:52;;;;;;;0.20;0.20;;;;;;;4.27;93.96;98976.91;5053797;28;20045;-71
2023/11/21 04:27:21;;;;;;;1.25;0.98;;;;;;;4.18;94.06;98974.22;5053675;28;20042;-71
2023/11/21 04:29:50;;;;;;;2.90;2.63;;;;;;;4.14;93.78;98969.97;5054243;28;20049;-71
2023/11/21 04:32:19;;;;;;;1.67;1.58;;;;;;;4.15;94.25;98969.16;5053586;28;20503;-71
2023/11/21 04:34:48;;;;;;;0.53;0.53;;;;;;;4.13;94.05;98950.63;5053664;28;20094;-72
2023/11/21 04:37:19;;;;;;;0.80;0.80;;;;;;;4.26;94.21;98980.25;5053603;28;20041;-71
2023/11/21 04:39:48;;;;;;;2.88;1.38;;;;;;;4.13;93.88;98965.78;5053566;28;20045;-71
2023/11/21 04:42:16;;;;;;;0.60;0.60;;;;;;;4.17;94.22;98975.09;5052216;28;20052;-71
2023/11/21 04:44:45;;;;;;;2.20;1.90;;;;;;;4.05;94.11;98984.16;5053479;28;20045;-71
2023/11/21 04:47:14;;;;;;;0.77;0.77;;;;;;;4.05;93.97;98984.16;5052222;28;20029;-71
2023/11/21 04:49:44;;;;;;;0.70;0.70;;;;;;;4.07;94.14;98997.69;5053393;28;20079;-71
2023/11/21 04:52:13;;;;;;;1.58;1.48;;;;;;;4.01;93.82;99005.16;5053437;28;20098;-71
2023/11/21 04:54:43;;;;;;;3.75;1.52;;;;;;;3.98;93.89;99006.81;5053161;28;20052;-71
2023/11/21 04:57:12;;;;;;;0.70;0.70;;;;;;;3.96;94.19;99011.81;5052437;28;20410;-72
2023/11/21 04:59:41;;;;;;;0.68;0.68;;;;;;;3.96;93.96;99011.81;5053269;28;20041;-72
2023/11/21 05:02:10;;;;;;;0.52;0.52;;;;;;;3.93;94.04;99009.28;5052188;28;20072;-72
2023/11/21 05:04:56;;;;;;;1.27;1.17;;;;;;;3.97;93.72;99011.00;5053241;28;20517;-71
2023/11/21 05:07:28;;;;;;;0.75;0.75;;;;;;;3.81;93.72;99024.22;5053247;28;20041;-71
2023/11/21 05:10:03;;;;;;;34.17;2.40;;;;;;;3.72;93.91;99029.09;5053243;28;20075;-72
2023/11/21 05:12:34;;;;;;;0.75;0.75;;;;;;;3.64;93.87;99044.97;5053803;28;20110;-71
2023/11/21 05:15:09;;;;;;;0.50;0.50;;;;;;;3.63;94.00;99034.00;5035691;28;20041;-71
2023/11/21 05:17:41;;;;;;;1.42;1.33;;;;;;;3.62;93.82;99037.38;5052029;28;20049;-71
2023/11/21 05:20:13;;;;;;;0.40;0.40;;;;;;;3.53;93.86;99036.38;5054272;28;20056;-71
2023/11/21 05:22:42;;;;;;;1.05;1.02;;;;;;;3.35;93.41;99011.69;5053146;28;20071;-71
2023/11/21 05:25:13;;;;;;;2.05;1.40;;;;;;;3.43;93.24;99032.84;5053169;28;20041;-71
2023/11/21 05:27:42;;;;;;;0.77;0.77;;;;;;;3.44;93.63;99047.16;5053409;28;20080;-71
2023/11/21 05:30:12;;;;;;;3.00;2.70;;;;;;;3.41;93.26;99036.19;5053140;28;20052;-72
2023/11/21 05:32:43;;;;;;;0.85;0.85;;;;;;;3.43;93.62;99050.50;5053094;28;20288;-71
2023/11/21 05:35:15;;;;;;;1.55;1.20;;;;;;;3.46;93.29;99050.53;5055173;28;20470;-71
2023/11/21 05:37:46;;;;;;;0.85;0.85;;;;;;;3.47;92.98;99052.25;5056871;28;20049;-71
2023/11/21 05:40:17;;;;;;;0.68;0.68;;;;;;;3.51;93.18;99054.00;5055648;28;20045;-71
2023/11/21 05:42:47;;;;;;;2.10;1.40;;;;;;;3.44;93.56;99052.19;5057088;28;20053;-72
2023/11/21 05:49:50;;;;;;;1.00;0.98;;;;;;;3.31;92.99;99045.25;5057326;28;20119;-71
2023/11/21 05:53:11;;;;;;;1.40;1.30;;;;;;;3.22;93.09;99045.06;5056584;28;20040;-71
2023/11/21 05:55:43;;;;;;;2.10;1.92;;;;;;;3.10;92.77;99039.78;5056502;28;20041;-72
2023/11/21 05:58:13;;;;;;;7.10;5.18;;;;;;;3.13;93.07;99049.94;5056489;28;20041;-72
2023/11/21 06:00:42;;;;;;;12.50;8.80;;;;;;;3.22;92.97;99055.16;5056392;28;20505;-71
2023/11/21 06:03:12;;;;;;;11.85;9.00;;;;;;;3.32;92.77;99051.97;5056351;28;20045;-71
2023/11/21 06:05:41;;;;;;;10.95;6.13;;;;;;;3.28;93.22;99050.22;5056554;28;20132;-71
2023/11/21 06:08:10;;;;;;;11.15;5.93;;;;;;;3.27;93.27;99056.09;5056264;28;20124;-72
2023/11/21 06:10:39;;;;;;;14.52;9.90;;;;;;;3.22;92.65;99055.16;5056420;28;20086;-72
2023/11/21 06:13:10;;;;;;;8.25;5.63;;;;;;;3.21;93.06;99051.81;5056120;28;20073;-72
2023/11/21 06:15:52;;;;;;;10.40;8.32;;;;;;;2.98;92.72;99010.19;5056042;28;20049;-72
2023/11/21 06:18:21;;;;;;;5.95;5.15;;;;;;;3.26;93.05;99061.97;5056329;28;20059;-72
2023/11/21 06:20:50;;;;;;;2.50;2.30;;;;;;;3.24;93.11;99068.63;5055880;28;20037;-72
2023/11/21 06:23:31;;;;;;;5.03;3.08;;;;;;;3.21;92.64;99063.56;5054733;28;20051;-72
2023/11/21 06:26:26;;;;;;;3.15;2.70;;;;;;;3.24;93.21;99073.66;5056094;28;20049;-72
2023/11/21 06:28:56;;;;;;;3.97;3.58;;;;;;;3.27;92.70;99078.78;5055752;28;20041;-72
2023/11/21 06:31:26;;;;;;;3.42;2.67;;;;;;;3.26;92.72;99079.63;5055936;28;20049;-72
2023/11/21 06:33:59;;;;;;;3.78;2.45;;;;;;;3.25;93.00;99077.91;5055719;28;20041;-72
2023/11/21 06:36:28;;;;;;;1.83;1.67;;;;;;;2.98;93.24;99029.50;5056217;28;20391;-72
2023/11/21 06:38:57;;;;;;;0.80;0.80;;;;;;;3.29;92.99;99082.16;5056004;28;20074;-72
2023/11/21 06:41:26;;;;;;;1.58;1.48;;;;;;;3.39;93.48;99105.06;5055523;28;20381;-72
2023/11/21 06:44:27;;;;;;;4.07;2.17;;;;;;;3.49;93.42;99112.78;5055928;28;20059;-72
2023/11/21 06:47:30;;;;;;;0.40;0.40;;;;;;;3.42;93.32;99113.50;5055417;28;20519;-72
2023/11/21 06:50:00;;;;;;;0.50;0.50;;;;;;;3.44;93.51;99120.28;5055383;28;20064;-72
2023/11/21 06:52:29;;;;;;;1.05;0.85;;;;;;;3.47;93.42;99114.44;5055408;28;20069;-72
2023/11/21 06:54:58;;;;;;;0.68;0.68;;;;;;;3.64;93.85;99126.53;5054101;28;20049;-72
2023/11/21 06:57:30;;;;;;;0.70;0.70;;;;;;;3.72;94.04;99119.13;5055349;28;20048;-72
2023/11/21 07:00:01;;;;;;;0.60;0.60;;;;;;;3.75;93.41;99127.56;5048063;28;20048;-73
2023/11/21 07:02:30;;;;;;;0.93;0.93;;;;;;;3.84;93.83;99132.78;5046476;28;20056;-72
2023/11/21 07:04:58;;;;;;;0.32;0.32;;;;;;;3.87;94.15;99122.72;5055484;28;20047;-72
2023/11/21 07:07:28;;;;;;;4.35;1.88;;;;;;;3.64;93.80;99101.31;5055360;28;20044;-72
2023/11/21 07:09:57;;;;;;;1.35;1.25;;;;;;;3.80;93.69;99148.69;5052111;28;20102;-73
2023/11/21 07:12:26;;;;;;;0.50;0.50;;;;;;;3.82;93.68;99149.56;5054171;28;20037;-73
2023/11/21 07:14:54;;;;;;;2.20;2.03;;;;;;;3.81;94.17;99135.25;5070416;28;20048;-73
2023/11/21 07:17:25;;;;;;;4.03;3.63;;;;;;;3.89;93.89;99151.38;5055112;28;20124;-73
2023/11/21 07:19:55;;;;;;;3.33;1.75;;;;;;;3.95;94.33;99148.97;5043166;28;20305;-73
2023/11/21 07:22:24;;;;;;;6.18;2.15;;;;;;;3.95;94.15;99136.34;5034845;28;20045;-72
2023/11/21 07:24:53;;;;;;;3.60;1.75;;;;;;;4.04;94.49;99149.09;5034892;28;20052;-72
2023/11/21 07:27:22;;;;;;;1.63;1.52;;;;;;;4.10;94.82;99137.41;5034809;28;20503;-72
2023/11/21 07:29:52;;;;;;;1.70;1.60;;;;;;;4.12;94.77;99135.75;5044376;28;20045;-72
2023/11/21 07:32:21;;;;;;;0.87;0.87;;;;;;;4.18;94.73;99133.31;5054994;28;20451;-72
2023/11/21 07:34:51;;;;;;;2.10;1.85;;;;;;;4.18;95.00;99140.88;5054517;28;20068;-72
2023/11/21 07:37:20;;;;;;;1.50;1.33;;;;;;;4.21;94.96;99135.91;5052653;28;20048;-72
2023/11/21 07:39:48;;;;;;;1.60;1.23;;;;;;;4.30;95.35;99141.06;5055103;28;20072;-73
2023/11/21 07:42:18;;;;;;;1.55;1.45;;;;;;;4.40;94.91;99125.25;5054419;28;20044;-72
2023/11/21 07:44:47;;;;;;;2.85;2.35;;;;;;;4.48;95.33;99139.69;5035977;28;20049;-72
2023/11/21 07:47:16;;;;;;;2.30;2.08;;;;;;;4.52;95.37;99105.22;5054635;28;20059;-72
2023/11/21 07:49:46;;;;;;;4.97;2.43;;;;;;;4.84;95.01;99125.84;5054305;28;20052;-72
2023/11/21 07:52:17;;;;;;;1.38;1.27;;;;;;;4.89;95.31;99130.16;5053281;28;20465;-72
2023/11/21 07:54:46;;;;;;;2.17;1.80;;;;;;;4.97;95.13;99132.75;5054005;28;20049;-72
2023/11/21 07:57:14;;;;;;;1.73;1.63;;;;;;;5.10;95.67;99138.00;5052804;28;20475;-72
2023/11/21 07:59:43;;;;;;;1.83;1.70;;;;;;;5.26;95.44;99132.28;5045388;28;20087;-72
2023/11/21 08:02:12;;;;;;;1.13;1.07;;;;;;;5.43;95.47;99140.91;5034185;28;20072;-72
2023/11/21 08:04:41;;;;;;;4.57;2.85;;;;;;;5.55;95.35;99145.25;5046554;28;20053;-72
2023/11/21 08:07:10;;;;;;;27.98;26.05;;;;;;;5.62;95.67;99147.00;5054275;28;20407;-72
2023/11/21 08:09:41;;;;;;;2.08;1.88;;;;;;;5.71;96.03;99146.28;5052884;28;20106;-72
2023/11/21 08:12:10;;;;;;;1.77;1.67;;;;;;;5.80;95.75;99146.34;5053099;28;20075;-72
2023/11/21 08:14:40;;;;;;;;;;;;;;;5.87;95.97;99154.06;5039889;28;20399;-72
2023/11/21 08:17:10;;;;;;;;;;;;;;;5.97;95.44;99148.22;5053340;28;20011;-72
2023/11/21 08:19:39;;;;;;;1.73;1.63;;;;;;;6.01;95.39;99131.38;5053801;28;20363;-72
2023/11/21 08:22:08;;;;;;;2.67;2.47;;;;;;;6.16;95.28;99156.00;5053544;28;20056;-72
2023/11/21 08:24:37;;;;;;;3.05;1.95;;;;;;;6.22;96.00;99151.81;5052671;28;20055;-71
2023/11/21 08:27:08;;;;;;;1.47;1.37;;;;;;;6.25;95.82;99141.72;5053336;28;20040;-72
2023/11/21 08:29:37;;;;;;;1.27;1.17;;;;;;;6.32;95.29;99137.53;5054166;28;20048;-71
2023/11/21 08:32:06;;;;;;;3.80;2.88;;;;;;;6.37;96.33;99134.19;5053624;28;20076;-71
2023/11/21 08:34:36;;;;;;;0.90;0.88;;;;;;;6.37;95.24;99121.53;5053542;28;20403;-71
2023/11/21 08:37:05;;;;;;;0.52;0.52;;;;;;;6.47;95.96;99128.38;5049760;28;20033;-73
2023/11/21 08:39:34;;;;;;;1.60;1.50;;;;;;;6.29;96.16;99092.75;5053544;28;20055;-71
2023/11/21 08:42:03;;;;;;;0.43;0.43;;;;;;;6.53;96.06;99137.66;5053580;28;20040;-72
2023/11/21 08:44:33;;;;;;;3.92;2.70;;;;;;;6.56;95.90;99128.41;5042171;28;20034;-72
2023/11/21 08:47:04;;;;;;;1.55;1.30;;;;;;;6.22;95.87;99080.00;5034174;28;20503;-72
2023/11/21 08:49:36;;;;;;;4.75;2.70;;;;;;;6.52;95.29;99141.06;5049009;28;20133;-71
2023/11/21 08:52:06;;;;;;;2.28;2.08;;;;;;;6.55;95.88;99146.97;5052550;28;20403;-72
2023/11/21 08:54:36;;;;;;;1.50;1.20;;;;;;;6.57;95.23;99144.47;5052017;28;20056;-72
2023/11/21 08:57:05;;;;;;;;;;;;;;;6.66;95.51;99159.75;5053756;28;20120;-71
2023/11/21 08:59:35;;;;;;;0.70;0.70;;;;;;;6.71;96.00;99164.00;5051914;28;19920;-72
2023/11/21 09:02:04;;;;;;;0.73;0.73;;;;;;;6.78;95.76;99158.97;5042903;28;20099;-72
2023/11/21 09:04:33;;;;;;;0.70;0.70;;;;;;;6.78;95.96;99148.81;5046013;28;20049;-72
2023/11/21 09:07:01;;;;;;;1.70;1.48;;;;;;;6.91;95.64;99163.28;5054045;28;20129;-71
2023/11/21 09:09:30;;;;;;;1.07;1.03;;;;;;;7.02;95.64;99161.63;5053998;28;20136;-72
2023/11/21 09:12:01;;;;;;;0.40;0.40;;;;;;;7.13;95.96;99167.59;5055575;28;20063;-72
2023/11/21 09:14:30;;;;;;;0.40;0.40;;;;;;;7.23;95.54;99149.03;5038175;28;20119;-72
2023/11/21 09:17:00;;;;;;;0.47;0.47;;;;;;;7.37;95.91;99157.53;5038621;28;20055;-72
2023/11/21 09:19:30;;;;;;;0.60;0.60;;;;;;;7.59;95.47;99154.22;5056202;28;20502;-71
2023/11/21 09:21:59;;;;;;;;;;;;;;;7.70;95.85;99147.47;5056302;28;20137;-72
2023/11/21 09:24:28;;;;;;;0.65;0.65;;;;;;;7.77;95.55;99150.91;5044164;28;19999;-73
2023/11/21 09:26:57;;;;;;;3.92;0.80;;;;;;;7.82;95.24;99141.59;5056961;28;20041;-72
2023/11/21 09:29:26;;;;;;;1.35;1.25;;;;;;;7.78;95.46;99145.81;5055902;28;20052;-72
2023/11/21 09:31:55;;;;;;;2.23;1.93;;;;;;;7.79;95.55;99139.91;5051386;28;20442;-72
2023/11/21 09:34:25;;;;;;;;;;;;;;;7.83;95.41;99133.09;5055276;28;20041;-72
2023/11/21 09:36:55;;;;;;;1.48;1.38;;;;;;;7.88;94.83;99132.28;5055718;28;19920;-73
2023/11/21 09:39:24;;;;;;;0.93;0.88;;;;;;;7.99;95.23;99127.22;5051025;28;20099;-72
2023/11/21 09:42:00;;;;;;;1.75;1.58;;;;;;;8.19;94.42;99128.06;5055694;28;20041;-71
2023/11/21 09:44:36;;;;;;;1.48;0.93;;;;;;;8.40;94.20;99127.22;5056934;28;20110;-72
2023/11/21 09:47:10;;;;;;;0.30;0.30;;;;;;;8.55;93.66;99111.94;5056715;28;20490;-71
2023/11/21 09:49:41;;;;;;;0.30;0.30;;;;;;;8.71;93.76;99111.03;5055664;28;20045;-72
2023/11/21 09:52:17;;;;;;;0.40;0.40;;;;;;;8.79;93.42;99111.88;5056566;28;20045;-72
2023/11/21 09:54:47;;;;;;;0.50;0.50;;;;;;;8.85;92.58;99109.34;5056288;28;20091;-71
2023/11/21 09:57:17;;;;;;;0.80;0.80;;;;;;;8.92;92.31;99105.06;5056559;28;20103;-72
2023/11/21 09:59:50;;;;;;;0.60;0.60;;;;;;;9.07;91.86;99113.47;5055294;28;20045;-72
2023/11/21 10:02:20;;;;;;;0.30;0.30;;;;;;;9.06;90.74;99109.25;5055603;28;20070;-72
2023/11/21 10:04:51;;;;;;;0.40;0.40;;;;;;;9.07;90.52;99110.94;5056361;28;20485;-72
2023/11/21 10:07:22;;;;;;;3.70;2.05;;;;;;;9.13;89.62;99117.72;5055234;28;20041;-73
2023/11/21 10:09:53;;;;;;;0.35;0.35;;;;;;;9.09;89.50;99086.34;5056136;28;20065;-73
2023/11/21 10:12:25;;;;;;;0.60;0.60;;;;;;;9.32;88.63;99120.16;5056205;28;20115;-73
2023/11/21 10:15:00;;;;;;;0.93;0.80;;;;;;;9.40;88.50;99113.34;5056415;28;20399;-72
2023/11/21 10:17:42;;;;;;;0.80;0.65;;;;;;;9.54;87.35;99109.88;5046741;28;20077;-73
2023/11/21 10:20:14;;;;;;;0.85;0.85;;;;;;;9.64;86.58;99101.31;5036171;28;20132;-73
2023/11/21 10:22:44;;;;;;;0.22;0.22;;;;;;;9.58;85.93;99075.88;5036394;28;20087;-73
2023/11/21 10:25:14;;;;;;;0.85;0.85;;;;;;;9.78;85.65;99096.97;5036556;28;20053;-73
2023/11/21 10:27:44;;;;;;;0.88;0.88;;;;;;;9.50;84.86;99103.09;5044932;28;20051;-73
2023/11/21 10:30:13;;;;;;;1.52;1.42;;;;;;;9.36;84.51;99101.47;5054774;28;20044;-73
2023/11/21 10:32:43;;;;;;;2.05;1.52;;;;;;;9.33;85.26;99101.47;5055764;28;20041;-73
2023/11/21 10:38:47;;;;;;;0.60;0.60;;;;;;;9.28;84.56;99097.28;5054232;28;20399;-73
2023/11/21 10:41:19;;;;;;;1.20;1.10;;;;;;;9.30;84.84;99100.66;5056168;28;20055;-73
2023/11/21 10:43:49;;;;;;;2.13;1.92;;;;;;;9.25;85.47;99103.22;5055926;28;20391;-73
2023/11/21 10:46:18;;;;;;;3.03;1.20;;;;;;;9.20;84.99;99099.84;5055847;28;20037;-72
2023/11/21 10:48:47;;;;;;;2.20;1.73;;;;;;;9.19;85.22;99100.69;5048755;28;20040;-72
2023/11/21 10:51:18;;;;;;;0.83;0.83;;;;;;;9.18;85.34;99101.56;5038546;28;20041;-72
2023/11/21 10:53:50;;;;;;;4.57;1.75;;;;;;;9.09;85.59;99078.72;5054551;28;20400;-71
2023/11/21 10:56:21;;;;;;;1.92;1.80;;;;;;;9.25;85.52;99098.13;5055684;28;20049;-71
2023/11/21 10:58:51;;;;;;;1.83;1.60;;;;;;;9.33;85.07;99101.47;5053504;28;20041;-73
2023/11/21 11:01:23;;;;;;;3.00;1.88;;;;;;;9.37;85.19;99098.06;5038123;28;20139;-72
2023/11/21 11:03:55;;;;;;;1.88;1.77;;;;;;;9.33;84.69;99091.28;5052828;28;20519;-73
2023/11/21 11:06:27;;;;;;;1.33;1.23;;;;;;;9.36;84.92;99090.44;5035106;28;20149;-72
2023/11/21 11:08:58;;;;;;;2.20;2.00;;;;;;;9.53;85.01;99092.88;5044279;28;20484;-73
2023/11/21 11:11:27;;;;;;;1.38;1.20;;;;;;;9.76;84.56;99091.03;5054127;28;20044;-73
2023/11/21 11:14:00;;;;;;;0.90;0.90;;;;;;;9.93;83.70;99094.31;5053653;28;20132;-73
2023/11/21 11:16:29;;;;;;;0.38;0.38;;;;;;;9.84;83.59;99064.63;5053733;28;20060;-73
2023/11/21 11:18:58;;;;;;;1.08;0.75;;;;;;;10.07;83.17;99088.25;5038946;28;20038;-73
2023/11/21 11:21:39;;;;;;;0.90;0.90;;;;;;;9.86;82.45;99021.31;5035208;28;20037;-73
2023/11/21 11:24:34;;;;;;;22.13;2.05;;;;;;;10.28;82.33;99073.63;5051928;28;20045;-73
2023/11/21 11:27:13;;;;;;;1.00;0.90;;;;;;;10.38;82.38;99067.59;5055204;28;20075;-73
2023/11/21 11:29:50;;;;;;;4.15;1.40;;;;;;;10.46;82.15;99066.66;5053602;28;20053;-73
2023/11/21 11:32:32;;;;;;;1.35;1.25;;;;;;;10.43;81.83;99056.50;5051833;28;20044;-73
2023/11/21 11:35:08;;;;;;;4.95;2.80;;;;;;;10.49;81.73;99046.22;5034673;28;20052;-74
2023/11/21 11:37:38;;;;;;;4.57;1.20;;;;;;;10.62;81.63;99058.00;5033490;28;20049;-73
2023/11/21 11:40:12;;;;;;;3.58;1.67;;;;;;;10.64;81.01;99056.25;5033876;28;20418;-73
2023/11/21 11:42:41;;;;;;;0.82;0.65;;;;;;;10.78;81.31;99044.19;5034482;28;20116;-74
2023/11/21 11:45:20;;;;;;;1.67;1.58;;;;;;;10.75;81.00;99038.25;5000419;28;20038;-73
2023/11/21 11:47:49;;;;;;;4.60;2.00;;;;;;;10.71;81.24;99006.84;5046189;28;20103;-73
2023/11/21 11:50:19;;;;;;;0.55;0.55;;;;;;;10.91;80.61;99028.72;5053176;28;20407;-73
2023/11/21 11:52:50;;;;;;;1.17;1.08;;;;;;;11.09;80.35;99044.63;5053547;28;20124;-74
2023/11/21 11:55:22;;;;;;;1.80;1.10;;;;;;;11.00;80.19;99049.03;5036199;28;20384;-74
2023/11/21 11:57:55;;;;;;;4.28;2.45;;;;;;;10.99;79.79;99047.34;5054713;28;20051;-74
2023/11/21 12:00:37;;;;;;;0.88;0.77;;;;;;;11.06;79.70;99049.78;5054127;28;20045;-74
2023/11/21 12:03:08;;;;;;;1.08;1.05;;;;;;;11.27;79.49;99043.56;5052994;28;20061;-74
2023/11/21 12:05:39;;;;;;;1.17;1.08;;;;;;;11.72;79.25;99047.19;5054573;28;20049;-74
2023/11/21 12:08:09;;;;;;;1.77;1.50;;;;;;;11.74;78.03;99045.44;5054283;28;20049;-73
2023/11/21 12:10:40;;;;;;;1.17;0.95;;;;;;;12.00;77.66;99048.41;5052709;28;20041;-73
2023/11/21 12:13:12;;;;;;;1.60;0.98;;;;;;;12.02;77.13;99032.19;5053801;28;20091;-74